createdAt,value
2019-04-29T00:00:05.963Z,1.10
2019-04-29T00:04:11.656Z,0.90
2019-04-29T00:08:15.842Z,0.70
2019-04-29T00:12:21.295Z,0.70
2019-04-29T00:16:39.045Z,0.90
2019-04-29T00:20:46.970Z,2.27
2019-04-29T00:24:51.021Z,0.87
2019-04-29T00:28:55.059Z,0.60
2019-04-29T00:32:59.127Z,1.00
2019-04-29T00:37:10.765Z,0.67
2019-04-29T00:41:23.970Z,0.80
2019-04-29T00:45:27.975Z,1.00
2019-04-29T00:49:31.923Z,0.80
2019-04-29T00:53:36.003Z,0.50
2019-04-29T00:57:39.996Z,1.00
2019-04-29T01:01:44.051Z,1.33
2019-04-29T01:05:48.486Z,0.87
2019-04-29T01:09:52.564Z,0.60
2019-04-29T01:13:56.623Z,0.50
2019-04-29T01:18:00.660Z,0.90
2019-04-29T01:22:04.621Z,0.50
2019-04-29T01:26:27.834Z,0.43
2019-04-29T01:30:51.668Z,1.63
2019-04-29T01:34:56.112Z,2.40
2019-04-29T01:39:01.772Z,4.90
2019-04-29T01:43:10.199Z,3.07
2019-04-29T01:47:14.213Z,3.00
2019-04-29T01:51:18.251Z,1.57
2019-04-29T01:55:22.360Z,4.23
2019-04-29T01:59:26.267Z,3.03
2019-04-29T02:03:30.757Z,9.27
2019-04-29T02:07:34.800Z,14.07
2019-04-29T02:11:39.184Z,10.40
2019-04-29T02:15:43.172Z,10.73
2019-04-29T02:19:47.146Z,11.93
2019-04-29T02:23:58.019Z,13.07
2019-04-29T02:28:01.982Z,7.17
2019-04-29T02:32:05.956Z,4.30
2019-04-29T02:36:10.068Z,4.30
2019-04-29T02:40:21.448Z,3.63
2019-04-29T02:44:25.550Z,3.83
2019-04-29T02:48:34.285Z,4.10
2019-04-29T02:52:35.356Z,2.63
2019-04-29T02:56:40.600Z,1.97
2019-04-29T03:01:04.169Z,1.53
2019-04-29T03:05:12.475Z,1.43
2019-04-29T03:09:16.609Z,2.17
2019-04-29T03:13:20.805Z,1.57
2019-04-29T03:17:24.976Z,1.27
2019-04-29T03:21:34.924Z,3.70
2019-04-29T03:25:42.393Z,0.90
2019-04-29T03:29:46.496Z,0.93
2019-04-29T03:33:50.561Z,1.47
2019-04-29T03:37:54.926Z,0.70
2019-04-29T03:41:58.858Z,0.70
2019-04-29T03:46:02.832Z,1.40
2019-04-29T03:50:06.991Z,1.33
2019-04-29T03:54:11.159Z,2.00
2019-04-29T03:58:15.291Z,2.00
2019-04-29T04:02:39.604Z,3.13
2019-04-29T04:06:49.378Z,5.73
2019-04-29T04:10:53.255Z,9.97
2019-04-29T04:14:59.186Z,13.30
2019-04-29T04:19:05.862Z,8.70
2019-04-29T04:23:10.253Z,5.77
2019-04-29T04:27:14.310Z,4.97
2019-04-29T04:31:18.379Z,3.73
2019-04-29T04:35:22.633Z,1.30
2019-04-29T04:39:28.190Z,1.60
2019-04-29T04:43:32.159Z,1.63
2019-04-29T04:47:36.250Z,1.40
2019-04-29T04:51:40.251Z,2.03
2019-04-29T04:55:45.628Z,1.87
2019-04-29T04:59:49.645Z,1.90
2019-04-29T05:03:53.702Z,2.47
2019-04-29T05:07:57.781Z,5.03
2019-04-29T05:12:01.770Z,3.00
2019-04-29T05:16:05.730Z,2.13
2019-04-29T05:20:10.062Z,2.97
2019-04-29T05:24:14.152Z,2.77
2019-04-29T05:28:18.181Z,11.53
2019-04-29T05:32:22.188Z,5.40
2019-04-29T05:36:46.396Z,7.63
2019-04-29T05:40:51.330Z,6.80
2019-04-29T05:45:14.449Z,3.37
2019-04-29T05:49:22.892Z,1.10
2019-04-29T05:53:31.103Z,0.70
2019-04-29T05:57:36.054Z,1.33
2019-04-29T06:01:42.602Z,3.13
2019-04-29T06:05:45.705Z,5.27
2019-04-29T06:09:50.690Z,7.13
2019-04-29T06:13:54.821Z,2.03
2019-04-29T06:17:58.750Z,0.50
2019-04-29T06:22:04.770Z,0.90
2019-04-29T06:26:08.877Z,1.00
2019-04-29T06:30:13.095Z,0.80
2019-04-29T06:34:18.125Z,0.90
2019-04-29T06:38:22.224Z,0.50
2019-04-29T06:42:26.275Z,0.40
2019-04-29T06:46:30.373Z,0.57
2019-04-29T06:50:34.372Z,0.60
2019-04-29T06:54:38.383Z,0.47
2019-04-29T06:58:42.707Z,1.03
2019-04-29T07:02:49.900Z,0.80
2019-04-29T07:06:57.711Z,1.80
2019-04-29T07:11:01.083Z,0.90
2019-04-29T07:15:07.569Z,0.60
2019-04-29T07:19:09.981Z,0.53
2019-04-29T07:23:13.859Z,1.47
2019-04-29T07:27:17.906Z,2.97
2019-04-29T07:31:21.857Z,3.87
2019-04-29T07:35:27.197Z,3.90
2019-04-29T07:39:33.144Z,3.20
2019-04-29T07:43:38.622Z,5.20
2019-04-29T07:47:55.821Z,6.23
2019-04-29T07:51:49.379Z,7.80
2019-04-29T07:55:53.372Z,8.50
2019-04-29T07:59:57.428Z,6.33
2019-04-29T08:04:01.574Z,6.53
2019-04-29T08:08:05.926Z,5.87
2019-04-29T08:12:10.183Z,6.27
2019-04-29T08:16:17.054Z,4.73
2019-04-29T08:20:20.183Z,3.20
2019-04-29T08:24:24.302Z,3.07
2019-04-29T08:28:28.196Z,4.40
2019-04-29T08:32:36.374Z,4.10
2019-04-29T08:36:38.211Z,3.83
2019-04-29T08:40:45.068Z,3.83
2019-04-29T08:44:59.751Z,4.37
2019-04-29T08:49:06.138Z,3.90
2019-04-29T08:53:09.698Z,3.58
2019-04-29T08:57:13.875Z,3.50
2019-04-29T09:01:19.813Z,4.42
2019-04-29T09:05:23.951Z,3.30
2019-04-29T09:09:29.501Z,4.30
2019-04-29T09:13:33.927Z,3.67
2019-04-29T09:17:38.047Z,4.65
2019-04-29T09:21:44.552Z,4.72
2019-04-29T09:26:06.126Z,2.15
2019-04-29T09:30:11.170Z,2.58
2019-04-29T09:34:15.273Z,2.85
2019-04-29T09:38:19.573Z,3.30
2019-04-29T09:42:35.891Z,5.10
2019-04-29T09:46:40.055Z,4.15
2019-04-29T09:50:44.201Z,3.12
2019-04-29T09:54:48.333Z,3.05
2019-04-29T09:59:11.723Z,2.45
2019-04-29T10:03:31.462Z,3.65
2019-04-29T10:07:37.121Z,3.62
2019-04-29T10:11:41.288Z,1.70
2019-04-29T10:15:55.882Z,3.27
2019-04-29T10:20:17.825Z,4.53
2019-04-29T10:24:22.060Z,2.52
2019-04-29T10:28:27.547Z,3.00
2019-04-29T10:32:32.656Z,2.30
2019-04-29T10:36:36.740Z,4.12
2019-04-29T10:41:02.859Z,2.17
2019-04-29T10:45:26.627Z,5.30
2019-04-29T10:49:39.243Z,2.47
2019-04-29T10:53:41.713Z,3.00
2019-04-29T10:57:49.851Z,2.30
2019-04-29T11:02:14.115Z,4.42
2019-04-29T11:06:19.690Z,2.08
2019-04-29T11:10:26.726Z,4.25
2019-04-29T11:14:33.173Z,2.83
2019-04-29T11:18:37.945Z,2.05
2019-04-29T11:22:47.092Z,2.10
2019-04-29T11:26:56.268Z,2.05
2019-04-29T11:31:00.784Z,5.17
2019-04-29T11:35:24.674Z,4.55
2019-04-29T11:39:30.210Z,2.83
2019-04-29T11:43:34.440Z,2.02
2019-04-29T11:47:38.973Z,3.12
2019-04-29T11:52:07.654Z,3.15
2019-04-29T11:55:52.589Z,3.30
2019-04-29T12:00:10.114Z,2.02
2019-04-29T12:04:22.798Z,3.60
2019-04-29T12:08:27.043Z,3.65
2019-04-29T12:12:31.097Z,4.65
2019-04-29T12:16:39.826Z,3.70
2019-04-29T12:21:03.225Z,4.10
2019-04-29T12:25:08.524Z,5.45
2019-04-29T12:29:13.797Z,5.75
2019-04-29T12:33:23.875Z,5.37
2019-04-29T12:37:48.192Z,9.05
2019-04-29T12:42:04.512Z,7.23
2019-04-29T12:46:12.367Z,6.08
2019-04-29T12:50:17.477Z,6.72
2019-04-29T12:54:22.549Z,6.62
2019-04-29T12:58:26.615Z,7.58
2019-04-29T13:02:48.357Z,8.90
2019-04-29T13:06:59.898Z,6.58
2019-04-29T13:11:05.574Z,5.60
2019-04-29T13:15:19.128Z,6.62
2019-04-29T13:19:31.498Z,6.97
2019-04-29T13:23:42.465Z,7.45
2019-04-29T13:27:41.473Z,8.65
2019-04-29T13:31:45.663Z,8.58
2019-04-29T13:35:49.823Z,11.08
2019-04-29T13:39:55.655Z,8.65
2019-04-29T13:44:05.266Z,9.28
2019-04-29T13:48:21.303Z,10.53
2019-04-29T13:52:25.345Z,11.57
2019-04-29T13:56:45.698Z,12.23
2019-04-29T14:00:43.806Z,10.55
2019-04-29T14:04:51.082Z,12.30
2019-04-29T14:08:55.193Z,13.18
2019-04-29T14:13:09.766Z,14.23
2019-04-29T14:17:24.207Z,12.35
2019-04-29T14:21:12.060Z,11.40
2019-04-29T14:25:16.310Z,10.30
2019-04-29T14:29:23.030Z,10.70
2019-04-29T14:33:31.115Z,13.53
2019-04-29T14:37:36.641Z,10.10
2019-04-29T14:41:44.168Z,10.32
2019-04-29T14:46:04.150Z,11.12
2019-04-29T14:50:10.661Z,13.75
2019-04-29T14:54:14.211Z,10.72
2019-04-29T14:58:18.234Z,11.78
2019-04-29T15:02:24.531Z,10.60
2019-04-29T15:06:29.332Z,10.20
2019-04-29T15:10:36.891Z,11.88
2019-04-29T15:15:00.819Z,10.70
2019-04-29T15:19:24.393Z,11.08
2019-04-29T15:23:32.544Z,11.12
2019-04-29T15:27:34.521Z,11.80
2019-04-29T15:31:42.469Z,11.80
2019-04-29T15:35:44.480Z,11.78
2019-04-29T15:39:48.569Z,12.35
2019-04-29T15:44:06.387Z,12.63
2019-04-29T15:47:58.479Z,11.55
2019-04-29T15:52:02.971Z,10.05
2019-04-29T15:56:27.733Z,11.65
2019-04-29T16:00:22.145Z,11.95
2019-04-29T16:04:27.724Z,10.78
2019-04-29T16:08:51.846Z,9.70
2019-04-29T16:12:59.005Z,10.10
2019-04-29T16:17:03.113Z,9.80
2019-04-29T16:21:07.250Z,10.43
2019-04-29T16:25:12.909Z,8.93
2019-04-29T16:29:17.168Z,10.28
2019-04-29T16:33:21.255Z,8.37
2019-04-29T16:37:31.788Z,9.73
2019-04-29T16:41:58.284Z,9.20
2019-04-29T16:46:07.094Z,8.18
2019-04-29T16:50:11.354Z,6.43
2019-04-29T16:54:20.605Z,7.17
2019-04-29T16:58:21.475Z,7.93
2019-04-29T17:02:26.533Z,8.55
2019-04-29T17:06:35.866Z,9.97
2019-04-29T17:10:56.593Z,7.77
2019-04-29T17:15:04.491Z,7.10
2019-04-29T17:19:07.030Z,7.53
2019-04-29T17:23:11.079Z,8.20
2019-04-29T17:27:35.187Z,7.47
2019-04-29T17:32:00.253Z,6.23
2019-04-29T17:36:04.901Z,6.93
2019-04-29T17:40:10.230Z,7.97
2019-04-29T17:44:33.512Z,7.67
2019-04-29T17:48:44.054Z,8.23
2019-04-29T17:52:48.187Z,7.03
2019-04-29T17:57:25.124Z,7.33
2019-04-29T18:01:32.017Z,8.10
2019-04-29T18:05:57.578Z,9.37
2019-04-29T18:10:12.295Z,7.03
2019-04-29T18:14:17.954Z,8.03
2019-04-29T18:18:30.983Z,7.80
2019-04-29T18:22:45.435Z,7.50
2019-04-29T18:26:53.786Z,7.77
2019-04-29T18:30:58.858Z,6.47
2019-04-29T18:35:03.127Z,7.10
2019-04-29T18:39:09.451Z,5.47
2019-04-29T18:43:14.993Z,6.10
2019-04-29T18:47:22.934Z,6.37
2019-04-29T18:51:28.796Z,5.57
2019-04-29T18:55:32.725Z,7.63
2019-04-29T18:59:36.845Z,4.73
2019-04-29T19:03:48.206Z,4.87
2019-04-29T19:07:55.234Z,4.33
2019-04-29T19:11:58.343Z,4.23
2019-04-29T19:16:09.501Z,4.67
2019-04-29T19:20:08.712Z,2.90
2019-04-29T19:24:16.089Z,4.43
2019-04-29T19:28:29.493Z,4.63
2019-04-29T19:32:27.390Z,5.37
2019-04-29T19:36:31.352Z,6.33
2019-04-29T19:40:41.408Z,4.97
2019-04-29T19:44:41.312Z,4.70
2019-04-29T19:48:45.350Z,5.63
2019-04-29T19:52:49.373Z,4.67
2019-04-29T19:57:02.958Z,6.10
2019-04-29T20:01:10.779Z,6.37
2019-04-29T20:05:11.739Z,8.33
2019-04-29T20:09:22.499Z,7.97
2019-04-29T20:13:30.594Z,8.80
2019-04-29T20:17:49.974Z,6.37
2019-04-29T20:21:56.057Z,6.10
2019-04-29T20:26:12.841Z,5.53
2019-04-29T20:30:15.797Z,6.23
2019-04-29T20:34:12.939Z,7.53
2019-04-29T20:38:19.683Z,5.70
2019-04-29T20:42:25.455Z,6.40
2019-04-29T20:46:43.257Z,5.00
2019-04-29T20:50:36.379Z,5.90
2019-04-29T20:54:40.612Z,6.27
2019-04-29T20:58:46.768Z,6.63
2019-04-29T21:02:50.427Z,7.43
2019-04-29T21:07:01.832Z,6.97
2019-04-29T21:11:02.995Z,6.50
2019-04-29T21:15:14.829Z,5.63
2019-04-29T21:19:18.399Z,6.50
2019-04-29T21:23:23.741Z,9.00
2019-04-29T21:27:28.165Z,7.37
2019-04-29T21:31:32.052Z,6.97
2019-04-29T21:35:49.545Z,7.37
2019-04-29T21:39:56.172Z,9.50
2019-04-29T21:44:01.085Z,9.20
2019-04-29T21:48:05.137Z,11.20
2019-04-29T21:52:09.282Z,14.27
2019-04-29T21:56:13.347Z,16.03
2019-04-29T22:00:24.060Z,14.17
2019-04-29T22:04:25.049Z,10.57
2019-04-29T22:08:30.066Z,11.17
2019-04-29T22:12:34.521Z,9.87
2019-04-29T22:16:39.537Z,12.47
2019-04-29T22:20:43.625Z,10.87
2019-04-29T22:24:47.857Z,12.67
2019-04-29T22:28:53.398Z,13.60
2019-04-29T22:32:58.651Z,13.67
2019-04-29T22:37:03.326Z,13.93
2019-04-29T22:41:11.833Z,14.87
2019-04-29T22:45:15.923Z,13.73
2019-04-29T22:49:25.172Z,14.03
2019-04-29T22:53:26.652Z,16.13
2019-04-29T22:57:31.746Z,16.20
2019-04-29T23:01:38.091Z,16.73
2019-04-29T23:05:41.795Z,14.73
2019-04-29T23:09:46.247Z,14.57
2019-04-29T23:13:51.661Z,15.27
2019-04-29T23:17:55.717Z,15.87
2019-04-29T23:22:22.270Z,14.57
2019-04-29T23:26:21.695Z,17.13
2019-04-29T23:30:27.631Z,17.00
2019-04-29T23:34:31.660Z,17.90
2019-04-29T23:38:38.591Z,16.63
2019-04-29T23:42:43.708Z,19.83
2019-04-29T23:46:48.357Z,18.43
2019-04-29T23:50:56.649Z,21.73
2019-04-29T23:54:58.362Z,19.37
2019-04-29T23:59:14.827Z,23.47
